sensor_id;sensor_type;location;lat;lon;timestamp;temperature;humidity
2639;DHT22;1329;51.384;7.122;2022-08-19T00:02:13;21.50;1.00
2639;DHT22;1329;51.384;7.122;2022-08-19T00:04:41;21.40;1.00
2639;DHT22;1329;51.384;7.122;2022-08-19T00:07:12;21.40;1.00
2639;DHT22;1329;51.384;7.122;2022-08-19T00:09:39;21.40;1.10
2639;DHT22;1329;51.384;7.122;2022-08-19T00:12:08;21.40;1.40
2639;DHT22;1329;51.384;7.122;2022-08-19T00:14:36;21.40;2.00
2639;DHT22;1329;51.384;7.122;2022-08-19T00:17:05;21.30;2.00
2639;DHT22;1329;51.384;7.122;2022-08-19T00:19:33;21.30;2.20
2639;DHT22;1329;51.384;7.122;2022-08-19T00:22:01;21.30;2.10
2639;DHT22;1329;51.384;7.122;2022-08-19T00:24:29;21.30;2.00
2639;DHT22;1329;51.384;7.122;2022-08-19T00:26:57;21.30;2.50
2639;DHT22;1329;51.384;7.122;2022-08-19T00:29:27;21.30;2.60
2639;DHT22;1329;51.384;7.122;2022-08-19T00:31:56;21.20;4.10
2639;DHT22;1329;51.384;7.122;2022-08-19T00:34:26;21.20;3.30
2639;DHT22;1329;51.384;7.122;2022-08-19T00:36:54;21.20;4.20
2639;DHT22;1329;51.384;7.122;2022-08-19T00:39:21;21.10;3.50
2639;DHT22;1329;51.384;7.122;2022-08-19T00:41:50;21.10;3.70
2639;DHT22;1329;51.384;7.122;2022-08-19T00:44:20;21.10;4.90
2639;DHT22;1329;51.384;7.122;2022-08-19T00:46:52;21.10;5.20
2639;DHT22;1329;51.384;7.122;2022-08-19T00:49:24;21.10;6.10
2639;DHT22;1329;51.384;7.122;2022-08-19T00:51:57;21.10;6.00
2639;DHT22;1329;51.384;7.122;2022-08-19T00:54:29;21.00;5.60
2639;DHT22;1329;51.384;7.122;2022-08-19T00:56:59;21.00;4.90
2639;DHT22;1329;51.384;7.122;2022-08-19T00:59:29;21.00;6.10
2639;DHT22;1329;51.384;7.122;2022-08-19T01:01:58;21.00;5.90
2639;DHT22;1329;51.384;7.122;2022-08-19T01:04:25;21.00;6.40
2639;DHT22;1329;51.384;7.122;2022-08-19T01:06:53;21.00;5.50
2639;DHT22;1329;51.384;7.122;2022-08-19T01:09:20;20.90;5.50
2639;DHT22;1329;51.384;7.122;2022-08-19T01:11:47;20.90;5.70
2639;DHT22;1329;51.384;7.122;2022-08-19T01:14:15;20.90;6.20
2639;DHT22;1329;51.384;7.122;2022-08-19T01:16:43;20.90;6.90
2639;DHT22;1329;51.384;7.122;2022-08-19T01:19:17;20.90;7.00
2639;DHT22;1329;51.384;7.122;2022-08-19T01:21:49;20.80;8.90
2639;DHT22;1329;51.384;7.122;2022-08-19T01:24:21;20.80;8.10
2639;DHT22;1329;51.384;7.122;2022-08-19T01:26:48;20.80;7.70
2639;DHT22;1329;51.384;7.122;2022-08-19T01:29:15;20.80;7.50
2639;DHT22;1329;51.384;7.122;2022-08-19T01:31:43;20.80;7.40
2639;DHT22;1329;51.384;7.122;2022-08-19T01:34:10;20.80;7.60
2639;DHT22;1329;51.384;7.122;2022-08-19T01:36:40;20.80;7.80
2639;DHT22;1329;51.384;7.122;2022-08-19T01:39:13;20.70;8.90
2639;DHT22;1329;51.384;7.122;2022-08-19T01:41:44;20.70;9.40
2639;DHT22;1329;51.384;7.122;2022-08-19T01:44:11;20.70;9.80
2639;DHT22;1329;51.384;7.122;2022-08-19T01:46:39;20.70;9.00
2639;DHT22;1329;51.384;7.122;2022-08-19T01:49:07;20.70;9.10
2639;DHT22;1329;51.384;7.122;2022-08-19T01:51:35;20.60;9.80
2639;DHT22;1329;51.384;7.122;2022-08-19T01:54:03;20.60;9.60
2639;DHT22;1329;51.384;7.122;2022-08-19T01:56:31;20.60;9.70
2639;DHT22;1329;51.384;7.122;2022-08-19T01:59:02;20.60;9.80
2639;DHT22;1329;51.384;7.122;2022-08-19T02:01:32;20.60;11.90
2639;DHT22;1329;51.384;7.122;2022-08-19T02:04:00;20.60;9.80
2639;DHT22;1329;51.384;7.122;2022-08-19T02:06:27;20.50;10.00
2639;DHT22;1329;51.384;7.122;2022-08-19T02:08:55;20.50;10.30
2639;DHT22;1329;51.384;7.122;2022-08-19T02:11:25;20.50;11.00
2639;DHT22;1329;51.384;7.122;2022-08-19T02:13:59;20.50;12.30
2639;DHT22;1329;51.384;7.122;2022-08-19T02:16:27;20.50;11.80
2639;DHT22;1329;51.384;7.122;2022-08-19T02:18:56;20.50;11.80
2639;DHT22;1329;51.384;7.122;2022-08-19T02:21:26;20.50;11.60
2639;DHT22;1329;51.384;7.122;2022-08-19T02:23:54;20.50;11.90
2639;DHT22;1329;51.384;7.122;2022-08-19T02:26:22;20.40;11.70
2639;DHT22;1329;51.384;7.122;2022-08-19T02:28:51;20.50;11.90
2639;DHT22;1329;51.384;7.122;2022-08-19T02:31:21;20.40;12.30
2639;DHT22;1329;51.384;7.122;2022-08-19T02:33:49;20.40;13.70
2639;DHT22;1329;51.384;7.122;2022-08-19T02:36:18;20.40;12.50
2639;DHT22;1329;51.384;7.122;2022-08-19T02:38:45;20.40;12.90
2639;DHT22;1329;51.384;7.122;2022-08-19T02:41:16;20.30;13.00
2639;DHT22;1329;51.384;7.122;2022-08-19T02:43:45;20.30;13.90
2639;DHT22;1329;51.384;7.122;2022-08-19T02:46:16;20.30;13.00
2639;DHT22;1329;51.384;7.122;2022-08-19T02:48:48;20.30;14.00
2639;DHT22;1329;51.384;7.122;2022-08-19T02:51:17;20.30;13.90
2639;DHT22;1329;51.384;7.122;2022-08-19T02:53:44;20.30;13.40
2639;DHT22;1329;51.384;7.122;2022-08-19T02:56:12;20.30;12.90
2639;DHT22;1329;51.384;7.122;2022-08-19T02:58:39;20.20;13.60
2639;DHT22;1329;51.384;7.122;2022-08-19T03:01:09;20.20;13.80
2639;DHT22;1329;51.384;7.122;2022-08-19T03:03:38;20.30;14.50
2639;DHT22;1329;51.384;7.122;2022-08-19T03:06:10;20.20;15.10
2639;DHT22;1329;51.384;7.122;2022-08-19T03:08:44;20.20;17.10
2639;DHT22;1329;51.384;7.122;2022-08-19T03:11:16;20.20;15.80
2639;DHT22;1329;51.384;7.122;2022-08-19T03:13:47;20.20;16.30
2639;DHT22;1329;51.384;7.122;2022-08-19T03:16:16;20.20;15.60
2639;DHT22;1329;51.384;7.122;2022-08-19T03:18:47;20.10;15.60
2639;DHT22;1329;51.384;7.122;2022-08-19T03:21:17;20.20;16.20
2639;DHT22;1329;51.384;7.122;2022-08-19T03:23:46;20.10;17.40
2639;DHT22;1329;51.384;7.122;2022-08-19T03:26:14;20.20;15.90
2639;DHT22;1329;51.384;7.122;2022-08-19T03:28:42;20.10;15.80
2639;DHT22;1329;51.384;7.122;2022-08-19T03:31:11;20.10;15.50
2639;DHT22;1329;51.384;7.122;2022-08-19T03:33:39;20.10;16.40
2639;DHT22;1329;51.384;7.122;2022-08-19T03:36:10;20.10;16.30
2639;DHT22;1329;51.384;7.122;2022-08-19T03:38:42;20.00;17.60
2639;DHT22;1329;51.384;7.122;2022-08-19T03:41:12;20.00;17.70
2639;DHT22;1329;51.384;7.122;2022-08-19T03:43:41;20.00;17.40
2639;DHT22;1329;51.384;7.122;2022-08-19T03:46:14;20.00;17.30
2639;DHT22;1329;51.384;7.122;2022-08-19T03:48:46;19.90;17.60
2639;DHT22;1329;51.384;7.122;2022-08-19T03:51:18;19.90;17.30
2639;DHT22;1329;51.384;7.122;2022-08-19T03:53:49;20.00;18.80
2639;DHT22;1329;51.384;7.122;2022-08-19T03:56:16;19.90;18.50
2639;DHT22;1329;51.384;7.122;2022-08-19T03:58:44;19.90;17.90
2639;DHT22;1329;51.384;7.122;2022-08-19T04:01:16;19.90;18.60
2639;DHT22;1329;51.384;7.122;2022-08-19T04:03:46;19.90;19.40
2639;DHT22;1329;51.384;7.122;2022-08-19T04:06:16;19.80;18.50
2639;DHT22;1329;51.384;7.122;2022-08-19T04:08:50;19.80;19.10
2639;DHT22;1329;51.384;7.122;2022-08-19T04:11:22;19.80;19.20
2639;DHT22;1329;51.384;7.122;2022-08-19T04:13:52;19.80;20.30
2639;DHT22;1329;51.384;7.122;2022-08-19T04:16:22;19.80;19.90
2639;DHT22;1329;51.384;7.122;2022-08-19T04:18:54;19.80;19.50
2639;DHT22;1329;51.384;7.122;2022-08-19T04:21:26;19.70;19.00
2639;DHT22;1329;51.384;7.122;2022-08-19T04:23:58;19.80;20.50
2639;DHT22;1329;51.384;7.122;2022-08-19T04:26:28;19.80;20.40
2639;DHT22;1329;51.384;7.122;2022-08-19T04:28:58;19.70;20.60
2639;DHT22;1329;51.384;7.122;2022-08-19T04:31:32;19.60;19.10
2639;DHT22;1329;51.384;7.122;2022-08-19T04:34:05;19.70;19.30
2639;DHT22;1329;51.384;7.122;2022-08-19T04:36:37;19.70;19.90
2639;DHT22;1329;51.384;7.122;2022-08-19T04:39:09;19.70;20.20
2639;DHT22;1329;51.384;7.122;2022-08-19T04:41:42;19.60;21.30
2639;DHT22;1329;51.384;7.122;2022-08-19T04:44:30;19.60;20.60
2639;DHT22;1329;51.384;7.122;2022-08-19T04:47:00;19.60;22.90
2639;DHT22;1329;51.384;7.122;2022-08-19T04:49:29;19.60;24.60
2639;DHT22;1329;51.384;7.122;2022-08-19T04:51:56;19.60;22.30
2639;DHT22;1329;51.384;7.122;2022-08-19T04:54:25;19.60;22.60
2639;DHT22;1329;51.384;7.122;2022-08-19T04:56:55;19.70;23.90
2639;DHT22;1329;51.384;7.122;2022-08-19T04:59:23;19.60;23.40
2639;DHT22;1329;51.384;7.122;2022-08-19T05:01:50;19.60;23.60
2639;DHT22;1329;51.384;7.122;2022-08-19T05:04:25;19.60;24.20
2639;DHT22;1329;51.384;7.122;2022-08-19T05:06:57;19.70;24.30
2639;DHT22;1329;51.384;7.122;2022-08-19T05:09:26;19.70;25.00
2639;DHT22;1329;51.384;7.122;2022-08-19T05:11:54;19.70;25.90
2639;DHT22;1329;51.384;7.122;2022-08-19T05:14:24;19.70;25.90
2639;DHT22;1329;51.384;7.122;2022-08-19T05:16:54;19.70;26.60
2639;DHT22;1329;51.384;7.122;2022-08-19T05:19:27;19.70;26.30
2639;DHT22;1329;51.384;7.122;2022-08-19T05:22:14;19.80;27.80
2639;DHT22;1329;51.384;7.122;2022-08-19T05:25:10;19.80;26.50
2639;DHT22;1329;51.384;7.122;2022-08-19T05:27:39;19.80;28.30
2639;DHT22;1329;51.384;7.122;2022-08-19T05:30:09;19.80;26.90
2639;DHT22;1329;51.384;7.122;2022-08-19T05:32:39;19.90;27.60
2639;DHT22;1329;51.384;7.122;2022-08-19T05:35:08;19.90;27.70
2639;DHT22;1329;51.384;7.122;2022-08-19T05:37:36;19.90;28.80
2639;DHT22;1329;51.384;7.122;2022-08-19T05:40:08;19.90;29.10
2639;DHT22;1329;51.384;7.122;2022-08-19T05:42:36;20.00;31.70
2639;DHT22;1329;51.384;7.122;2022-08-19T05:45:08;20.00;31.80
2639;DHT22;1329;51.384;7.122;2022-08-19T05:47:38;20.10;34.10
2639;DHT22;1329;51.384;7.122;2022-08-19T05:50:06;20.20;34.60
2639;DHT22;1329;51.384;7.122;2022-08-19T05:52:37;20.20;36.00
2639;DHT22;1329;51.384;7.122;2022-08-19T05:55:10;20.40;36.80
2639;DHT22;1329;51.384;7.122;2022-08-19T05:57:38;20.40;36.00
2639;DHT22;1329;51.384;7.122;2022-08-19T06:00:09;20.50;35.10
2639;DHT22;1329;51.384;7.122;2022-08-19T06:02:40;20.60;35.10
2639;DHT22;1329;51.384;7.122;2022-08-19T06:05:09;20.70;34.70
2639;DHT22;1329;51.384;7.122;2022-08-19T06:07:38;20.80;34.40
2639;DHT22;1329;51.384;7.122;2022-08-19T06:10:09;20.90;34.00
2639;DHT22;1329;51.384;7.122;2022-08-19T06:12:37;20.90;34.40
2639;DHT22;1329;51.384;7.122;2022-08-19T06:15:13;21.00;34.30
2639;DHT22;1329;51.384;7.122;2022-08-19T06:17:42;21.10;36.90
2639;DHT22;1329;51.384;7.122;2022-08-19T06:20:13;21.10;35.80
2639;DHT22;1329;51.384;7.122;2022-08-19T06:22:48;21.20;36.20
2639;DHT22;1329;51.384;7.122;2022-08-19T06:25:18;21.20;36.40
2639;DHT22;1329;51.384;7.122;2022-08-19T06:27:47;21.30;37.20
2639;DHT22;1329;51.384;7.122;2022-08-19T06:30:15;21.30;36.50
2639;DHT22;1329;51.384;7.122;2022-08-19T06:32:42;21.30;36.90
2639;DHT22;1329;51.384;7.122;2022-08-19T06:35:13;21.30;36.10
2639;DHT22;1329;51.384;7.122;2022-08-19T06:37:41;21.40;35.40
2639;DHT22;1329;51.384;7.122;2022-08-19T06:40:10;21.40;35.00
2639;DHT22;1329;51.384;7.122;2022-08-19T06:42:40;21.40;35.10
2639;DHT22;1329;51.384;7.122;2022-08-19T06:45:10;21.40;35.70
2639;DHT22;1329;51.384;7.122;2022-08-19T06:47:40;21.40;34.90
2639;DHT22;1329;51.384;7.122;2022-08-19T06:50:16;21.40;34.80
2639;DHT22;1329;51.384;7.122;2022-08-19T06:52:44;21.40;35.60
2639;DHT22;1329;51.384;7.122;2022-08-19T06:55:12;21.40;36.10
2639;DHT22;1329;51.384;7.122;2022-08-19T06:57:41;21.40;37.00
2639;DHT22;1329;51.384;7.122;2022-08-19T07:00:11;21.40;39.40
2639;DHT22;1329;51.384;7.122;2022-08-19T07:02:40;21.40;39.40
2639;DHT22;1329;51.384;7.122;2022-08-19T07:05:10;21.30;40.60
2639;DHT22;1329;51.384;7.122;2022-08-19T07:07:37;21.40;41.50
2639;DHT22;1329;51.384;7.122;2022-08-19T07:10:09;21.40;42.50
2639;DHT22;1329;51.384;7.122;2022-08-19T07:12:37;21.50;45.10
2639;DHT22;1329;51.384;7.122;2022-08-19T07:15:10;21.50;45.10
2639;DHT22;1329;51.384;7.122;2022-08-19T07:17:41;21.50;47.50
2639;DHT22;1329;51.384;7.122;2022-08-19T07:20:10;21.60;47.60
2639;DHT22;1329;51.384;7.122;2022-08-19T07:22:39;21.60;50.00
2639;DHT22;1329;51.384;7.122;2022-08-19T07:25:09;21.70;48.60
2639;DHT22;1329;51.384;7.122;2022-08-19T07:27:36;21.80;48.80
2639;DHT22;1329;51.384;7.122;2022-08-19T07:30:04;21.80;49.30
2639;DHT22;1329;51.384;7.122;2022-08-19T07:32:34;21.80;48.00
2639;DHT22;1329;51.384;7.122;2022-08-19T07:35:01;22.00;48.60
2639;DHT22;1329;51.384;7.122;2022-08-19T07:37:30;22.00;48.00
2639;DHT22;1329;51.384;7.122;2022-08-19T07:39:58;22.10;47.90
2639;DHT22;1329;51.384;7.122;2022-08-19T07:42:25;22.10;47.50
2639;DHT22;1329;51.384;7.122;2022-08-19T07:44:55;22.20;47.40
2639;DHT22;1329;51.384;7.122;2022-08-19T07:47:24;22.30;47.20
2639;DHT22;1329;51.384;7.122;2022-08-19T07:49:54;22.30;46.70
2639;DHT22;1329;51.384;7.122;2022-08-19T07:52:22;22.40;46.40
2639;DHT22;1329;51.384;7.122;2022-08-19T07:54:50;22.40;46.40
2639;DHT22;1329;51.384;7.122;2022-08-19T07:57:17;22.60;46.30
2639;DHT22;1329;51.384;7.122;2022-08-19T07:59:45;22.60;45.90
2639;DHT22;1329;51.384;7.122;2022-08-19T08:02:12;22.60;45.80
2639;DHT22;1329;51.384;7.122;2022-08-19T08:04:43;22.60;45.80
2639;DHT22;1329;51.384;7.122;2022-08-19T08:07:29;22.70;45.30
2639;DHT22;1329;51.384;7.122;2022-08-19T08:10:14;22.80;45.40
2639;DHT22;1329;51.384;7.122;2022-08-19T08:12:42;22.80;44.60
2639;DHT22;1329;51.384;7.122;2022-08-19T08:15:12;22.90;43.80
2639;DHT22;1329;51.384;7.122;2022-08-19T08:17:43;22.90;43.00
2639;DHT22;1329;51.384;7.122;2022-08-19T08:20:13;23.00;43.40
2639;DHT22;1329;51.384;7.122;2022-08-19T08:22:45;23.00;42.50
2639;DHT22;1329;51.384;7.122;2022-08-19T08:25:31;23.10;41.50
2639;DHT22;1329;51.384;7.122;2022-08-19T08:27:58;23.10;41.20
2639;DHT22;1329;51.384;7.122;2022-08-19T08:30:27;23.10;40.50
2639;DHT22;1329;51.384;7.122;2022-08-19T08:32:58;23.20;40.50
2639;DHT22;1329;51.384;7.122;2022-08-19T08:35:26;23.30;41.10
2639;DHT22;1329;51.384;7.122;2022-08-19T08:37:56;23.30;40.40
2639;DHT22;1329;51.384;7.122;2022-08-19T08:40:28;23.50;40.00
2639;DHT22;1329;51.384;7.122;2022-08-19T08:43:03;23.40;39.60
2639;DHT22;1329;51.384;7.122;2022-08-19T08:45:35;23.50;38.20
2639;DHT22;1329;51.384;7.122;2022-08-19T08:48:18;23.60;37.40
2639;DHT22;1329;51.384;7.122;2022-08-19T08:50:54;23.70;36.10
2639;DHT22;1329;51.384;7.122;2022-08-19T08:53:26;23.70;35.70
2639;DHT22;1329;51.384;7.122;2022-08-19T08:56:03;23.80;35.40
2639;DHT22;1329;51.384;7.122;2022-08-19T08:58:46;23.90;34.10
2639;DHT22;1329;51.384;7.122;2022-08-19T09:01:24;24.00;32.40
2639;DHT22;1329;51.384;7.122;2022-08-19T09:03:55;24.20;29.80
2639;DHT22;1329;51.384;7.122;2022-08-19T09:06:29;24.40;33.90
2639;DHT22;1329;51.384;7.122;2022-08-19T09:09:13;24.50;28.00
2639;DHT22;1329;51.384;7.122;2022-08-19T09:11:57;24.70;25.40
2639;DHT22;1329;51.384;7.122;2022-08-19T09:14:45;24.80;22.10
2639;DHT22;1329;51.384;7.122;2022-08-19T09:17:22;24.90;19.90
2639;DHT22;1329;51.384;7.122;2022-08-19T09:19:59;25.00;18.90
2639;DHT22;1329;51.384;7.122;2022-08-19T09:22:34;25.10;17.30
2639;DHT22;1329;51.384;7.122;2022-08-19T09:25:04;25.20;14.60
2639;DHT22;1329;51.384;7.122;2022-08-19T09:27:33;25.20;16.00
2639;DHT22;1329;51.384;7.122;2022-08-19T09:30:05;25.40;16.50
2639;DHT22;1329;51.384;7.122;2022-08-19T09:32:36;25.40;14.30
2639;DHT22;1329;51.384;7.122;2022-08-19T09:35:08;25.50;8.50
2639;DHT22;1329;51.384;7.122;2022-08-19T09:37:38;25.60;9.80
2639;DHT22;1329;51.384;7.122;2022-08-19T09:40:08;25.60;7.70
2639;DHT22;1329;51.384;7.122;2022-08-19T09:42:37;25.60;7.40
2639;DHT22;1329;51.384;7.122;2022-08-19T09:45:09;25.60;8.90
2639;DHT22;1329;51.384;7.122;2022-08-19T09:47:37;25.60;7.30
2639;DHT22;1329;51.384;7.122;2022-08-19T09:50:06;25.60;6.90
2639;DHT22;1329;51.384;7.122;2022-08-19T09:52:34;25.60;4.40
2639;DHT22;1329;51.384;7.122;2022-08-19T09:55:04;25.60;3.80
2639;DHT22;1329;51.384;7.122;2022-08-19T09:57:33;25.60;2.50
2639;DHT22;1329;51.384;7.122;2022-08-19T10:00:06;25.60;1.00
2639;DHT22;1329;51.384;7.122;2022-08-19T10:02:35;25.60;1.10
2639;DHT22;1329;51.384;7.122;2022-08-19T10:05:03;25.70;3.00
2639;DHT22;1329;51.384;7.122;2022-08-19T10:07:50;25.70;3.00
2639;DHT22;1329;51.384;7.122;2022-08-19T10:10:19;25.70;1.00
2639;DHT22;1329;51.384;7.122;2022-08-19T10:12:52;25.80;1.00
2639;DHT22;1329;51.384;7.122;2022-08-19T10:15:21;25.80;1.00
2639;DHT22;1329;51.384;7.122;2022-08-19T10:17:48;25.90;1.00
2639;DHT22;1329;51.384;7.122;2022-08-19T10:20:16;25.90;1.00
2639;DHT22;1329;51.384;7.122;2022-08-19T10:22:46;25.90;1.00
2639;DHT22;1329;51.384;7.122;2022-08-19T10:25:13;25.90;1.00
2639;DHT22;1329;51.384;7.122;2022-08-19T10:27:43;25.90;1.00
2639;DHT22;1329;51.384;7.122;2022-08-19T10:30:13;25.90;1.00
2639;DHT22;1329;51.384;7.122;2022-08-19T10:32:40;25.90;1.00
2639;DHT22;1329;51.384;7.122;2022-08-19T10:35:10;25.90;1.00
2639;DHT22;1329;51.384;7.122;2022-08-19T10:37:38;26.00;1.00
2639;DHT22;1329;51.384;7.122;2022-08-19T10:40:07;26.00;1.00
2639;DHT22;1329;51.384;7.122;2022-08-19T10:42:37;26.00;1.00
2639;DHT22;1329;51.384;7.122;2022-08-19T10:45:08;26.10;1.00
2639;DHT22;1329;51.384;7.122;2022-08-19T10:47:37;26.10;1.00
2639;DHT22;1329;51.384;7.122;2022-08-19T10:50:08;26.20;1.00
2639;DHT22;1329;51.384;7.122;2022-08-19T10:53:02;26.20;1.00
2639;DHT22;1329;51.384;7.122;2022-08-19T10:55:30;26.30;1.00
2639;DHT22;1329;51.384;7.122;2022-08-19T10:58:20;26.30;1.00
2639;DHT22;1329;51.384;7.122;2022-08-19T11:00:52;26.40;1.00
2639;DHT22;1329;51.384;7.122;2022-08-19T11:03:22;26.50;1.00
2639;DHT22;1329;51.384;7.122;2022-08-19T11:05:57;26.50;1.00
2639;DHT22;1329;51.384;7.122;2022-08-19T11:08:28;26.60;1.00
2639;DHT22;1329;51.384;7.122;2022-08-19T11:11:00;26.60;1.00
2639;DHT22;1329;51.384;7.122;2022-08-19T11:13:30;26.60;1.00
2639;DHT22;1329;51.384;7.122;2022-08-19T11:16:03;26.60;1.00
2639;DHT22;1329;51.384;7.122;2022-08-19T11:18:39;26.60;1.00
2639;DHT22;1329;51.384;7.122;2022-08-19T11:21:11;26.60;1.00
2639;DHT22;1329;51.384;7.122;2022-08-19T11:23:51;26.70;1.00
2639;DHT22;1329;51.384;7.122;2022-08-19T11:26:20;26.80;1.00
2639;DHT22;1329;51.384;7.122;2022-08-19T11:28:49;26.80;1.00
2639;DHT22;1329;51.384;7.122;2022-08-19T11:31:22;26.90;1.00
2639;DHT22;1329;51.384;7.122;2022-08-19T11:33:52;27.00;1.00
2639;DHT22;1329;51.384;7.122;2022-08-19T11:36:21;27.00;1.00
2639;DHT22;1329;51.384;7.122;2022-08-19T11:38:49;27.10;1.00
2639;DHT22;1329;51.384;7.122;2022-08-19T11:41:22;27.20;1.00
2639;DHT22;1329;51.384;7.122;2022-08-19T11:43:53;27.20;1.00
2639;DHT22;1329;51.384;7.122;2022-08-19T11:46:22;27.30;1.00
2639;DHT22;1329;51.384;7.122;2022-08-19T11:48:52;27.40;1.00
2639;DHT22;1329;51.384;7.122;2022-08-19T11:51:23;27.40;1.00
2639;DHT22;1329;51.384;7.122;2022-08-19T11:53:52;27.40;1.00
2639;DHT22;1329;51.384;7.122;2022-08-19T11:56:21;27.40;1.00
2639;DHT22;1329;51.384;7.122;2022-08-19T11:58:50;27.40;1.00
2639;DHT22;1329;51.384;7.122;2022-08-19T12:01:27;27.40;1.00
2639;DHT22;1329;51.384;7.122;2022-08-19T12:03:58;27.40;1.00
2639;DHT22;1329;51.384;7.122;2022-08-19T12:06:37;27.40;1.00
2639;DHT22;1329;51.384;7.122;2022-08-19T12:09:11;27.40;1.00
2639;DHT22;1329;51.384;7.122;2022-08-19T12:11:40;27.40;1.00
2639;DHT22;1329;51.384;7.122;2022-08-19T12:14:10;27.30;1.00
2639;DHT22;1329;51.384;7.122;2022-08-19T12:16:40;27.30;1.00
2639;DHT22;1329;51.384;7.122;2022-08-19T12:19:14;27.30;1.00
2639;DHT22;1329;51.384;7.122;2022-08-19T12:21:42;27.40;1.00
2639;DHT22;1329;51.384;7.122;2022-08-19T12:24:09;27.30;1.00
2639;DHT22;1329;51.384;7.122;2022-08-19T12:26:40;27.20;1.00
2639;DHT22;1329;51.384;7.122;2022-08-19T12:29:08;27.40;1.00
2639;DHT22;1329;51.384;7.122;2022-08-19T12:31:43;27.40;1.00
2639;DHT22;1329;51.384;7.122;2022-08-19T12:34:17;27.50;1.00
2639;DHT22;1329;51.384;7.122;2022-08-19T12:36:48;27.60;1.00
2639;DHT22;1329;51.384;7.122;2022-08-19T12:39:19;27.70;1.00
2639;DHT22;1329;51.384;7.122;2022-08-19T12:41:50;27.70;1.00
2639;DHT22;1329;51.384;7.122;2022-08-19T12:44:24;27.80;1.00
2639;DHT22;1329;51.384;7.122;2022-08-19T12:46:52;28.00;1.00
2639;DHT22;1329;51.384;7.122;2022-08-19T12:49:20;28.00;1.00
2639;DHT22;1329;51.384;7.122;2022-08-19T12:51:48;28.20;1.00
2639;DHT22;1329;51.384;7.122;2022-08-19T12:54:15;28.30;1.00
2639;DHT22;1329;51.384;7.122;2022-08-19T12:56:43;28.40;1.00
2639;DHT22;1329;51.384;7.122;2022-08-19T12:59:17;28.50;1.00
2639;DHT22;1329;51.384;7.122;2022-08-19T13:01:46;28.60;1.00
2639;DHT22;1329;51.384;7.122;2022-08-19T13:04:17;28.80;1.00
2639;DHT22;1329;51.384;7.122;2022-08-19T13:06:47;28.90;1.00
2639;DHT22;1329;51.384;7.122;2022-08-19T13:09:15;29.00;1.00
2639;DHT22;1329;51.384;7.122;2022-08-19T13:11:42;29.10;1.00
2639;DHT22;1329;51.384;7.122;2022-08-19T13:14:13;29.10;1.00
2639;DHT22;1329;51.384;7.122;2022-08-19T13:16:42;29.20;1.00
2639;DHT22;1329;51.384;7.122;2022-08-19T13:19:11;29.20;1.00
2639;DHT22;1329;51.384;7.122;2022-08-19T13:21:40;29.20;1.00
2639;DHT22;1329;51.384;7.122;2022-08-19T13:24:12;29.20;1.00
2639;DHT22;1329;51.384;7.122;2022-08-19T13:26:44;29.30;1.00
2639;DHT22;1329;51.384;7.122;2022-08-19T13:29:11;29.30;1.00
2639;DHT22;1329;51.384;7.122;2022-08-19T13:31:58;29.30;1.00
2639;DHT22;1329;51.384;7.122;2022-08-19T13:34:50;29.40;1.00
2639;DHT22;1329;51.384;7.122;2022-08-19T13:37:18;29.50;1.00
2639;DHT22;1329;51.384;7.122;2022-08-19T13:40:11;29.50;1.00
2639;DHT22;1329;51.384;7.122;2022-08-19T13:42:45;29.50;1.00
2639;DHT22;1329;51.384;7.122;2022-08-19T13:45:16;29.50;1.00
2639;DHT22;1329;51.384;7.122;2022-08-19T13:47:46;29.40;1.00
2639;DHT22;1329;51.384;7.122;2022-08-19T13:50:20;29.30;1.00
2639;DHT22;1329;51.384;7.122;2022-08-19T13:52:56;29.20;1.00
2639;DHT22;1329;51.384;7.122;2022-08-19T13:55:29;29.20;1.00
2639;DHT22;1329;51.384;7.122;2022-08-19T13:58:00;29.20;1.00
2639;DHT22;1329;51.384;7.122;2022-08-19T14:00:32;29.30;1.00
2639;DHT22;1329;51.384;7.122;2022-08-19T14:03:04;29.30;1.00
2639;DHT22;1329;51.384;7.122;2022-08-19T14:05:32;29.30;1.00
2639;DHT22;1329;51.384;7.122;2022-08-19T14:08:00;29.40;1.00
2639;DHT22;1329;51.384;7.122;2022-08-19T14:10:31;29.50;1.00
2639;DHT22;1329;51.384;7.122;2022-08-19T14:13:07;29.60;1.00
2639;DHT22;1329;51.384;7.122;2022-08-19T14:15:38;29.60;1.00
2639;DHT22;1329;51.384;7.122;2022-08-19T14:18:08;29.70;1.00
2639;DHT22;1329;51.384;7.122;2022-08-19T14:20:37;29.70;1.00
2639;DHT22;1329;51.384;7.122;2022-08-19T14:23:08;29.90;1.00
2639;DHT22;1329;51.384;7.122;2022-08-19T14:25:43;30.00;1.00
2639;DHT22;1329;51.384;7.122;2022-08-19T14:28:12;30.00;1.00
2639;DHT22;1329;51.384;7.122;2022-08-19T14:30:42;30.10;1.00
2639;DHT22;1329;51.384;7.122;2022-08-19T14:33:13;30.20;1.00
2639;DHT22;1329;51.384;7.122;2022-08-19T14:35:40;30.20;1.00
2639;DHT22;1329;51.384;7.122;2022-08-19T14:38:19;30.30;1.00
2639;DHT22;1329;51.384;7.122;2022-08-19T14:40:49;30.40;1.00
2639;DHT22;1329;51.384;7.122;2022-08-19T14:43:19;30.40;1.00
2639;DHT22;1329;51.384;7.122;2022-08-19T14:45:52;30.50;1.00
2639;DHT22;1329;51.384;7.122;2022-08-19T14:48:20;30.50;1.00
2639;DHT22;1329;51.384;7.122;2022-08-19T14:50:49;30.50;1.00
2639;DHT22;1329;51.384;7.122;2022-08-19T14:53:20;30.50;1.00
2639;DHT22;1329;51.384;7.122;2022-08-19T14:55:49;30.50;1.00
2639;DHT22;1329;51.384;7.122;2022-08-19T14:58:17;30.50;1.00
2639;DHT22;1329;51.384;7.122;2022-08-19T15:00:46;30.50;1.00
2639;DHT22;1329;51.384;7.122;2022-08-19T15:03:15;30.50;1.00
2639;DHT22;1329;51.384;7.122;2022-08-19T15:05:45;30.60;1.00
2639;DHT22;1329;51.384;7.122;2022-08-19T15:08:17;30.50;1.00
2639;DHT22;1329;51.384;7.122;2022-08-19T15:10:49;30.50;1.00
2639;DHT22;1329;51.384;7.122;2022-08-19T15:13:20;30.50;1.00
2639;DHT22;1329;51.384;7.122;2022-08-19T15:15:49;30.40;1.00
2639;DHT22;1329;51.384;7.122;2022-08-19T15:18:20;30.30;1.00
2639;DHT22;1329;51.384;7.122;2022-08-19T15:20:49;30.20;1.00
2639;DHT22;1329;51.384;7.122;2022-08-19T15:23:18;30.10;1.00
2639;DHT22;1329;51.384;7.122;2022-08-19T15:25:46;30.10;1.00
2639;DHT22;1329;51.384;7.122;2022-08-19T15:28:40;29.90;1.00
2639;DHT22;1329;51.384;7.122;2022-08-19T15:31:11;29.80;1.00
2639;DHT22;1329;51.384;7.122;2022-08-19T15:33:56;29.60;1.00
2639;DHT22;1329;51.384;7.122;2022-08-19T15:36:24;29.40;1.00
2639;DHT22;1329;51.384;7.122;2022-08-19T15:38:52;29.30;1.00
2639;DHT22;1329;51.384;7.122;2022-08-19T15:41:26;29.10;1.00
2639;DHT22;1329;51.384;7.122;2022-08-19T15:43:57;29.00;1.00
2639;DHT22;1329;51.384;7.122;2022-08-19T15:46:28;28.90;1.00
2639;DHT22;1329;51.384;7.122;2022-08-19T15:49:09;28.80;1.00
2639;DHT22;1329;51.384;7.122;2022-08-19T15:51:38;28.80;1.00
2639;DHT22;1329;51.384;7.122;2022-08-19T15:54:14;28.70;1.00
2639;DHT22;1329;51.384;7.122;2022-08-19T15:56:45;28.60;1.00
2639;DHT22;1329;51.384;7.122;2022-08-19T15:59:27;28.60;1.00
2639;DHT22;1329;51.384;7.122;2022-08-19T16:02:12;28.70;1.00
2639;DHT22;1329;51.384;7.122;2022-08-19T16:04:57;28.80;1.00
2639;DHT22;1329;51.384;7.122;2022-08-19T16:07:41;28.90;1.00
2639;DHT22;1329;51.384;7.122;2022-08-19T16:10:09;29.10;1.00
2639;DHT22;1329;51.384;7.122;2022-08-19T16:12:40;29.30;1.00
2639;DHT22;1329;51.384;7.122;2022-08-19T16:15:14;29.50;1.00
2639;DHT22;1329;51.384;7.122;2022-08-19T16:17:45;29.60;1.00
2639;DHT22;1329;51.384;7.122;2022-08-19T16:20:14;29.70;1.00
2639;DHT22;1329;51.384;7.122;2022-08-19T16:22:46;29.70;1.00
2639;DHT22;1329;51.384;7.122;2022-08-19T16:25:19;29.80;1.00
2639;DHT22;1329;51.384;7.122;2022-08-19T16:27:55;29.80;1.00
2639;DHT22;1329;51.384;7.122;2022-08-19T16:30:24;29.90;1.00
2639;DHT22;1329;51.384;7.122;2022-08-19T16:32:51;29.90;1.00
2639;DHT22;1329;51.384;7.122;2022-08-19T16:35:21;29.90;1.00